createdAt,value
2023-04-15T00:02:43.097Z,11.25
2023-04-15T00:06:55.658Z,11.12
2023-04-15T00:11:11.508Z,11.13
2023-04-15T00:15:24.058Z,11.05
2023-04-15T00:19:37.136Z,11.07
2023-04-15T00:23:52.995Z,11.00
2023-04-15T00:28:05.607Z,11.07
2023-04-15T00:32:18.164Z,11.18
2023-04-15T00:36:30.674Z,11.13
2023-04-15T00:40:43.972Z,11.33
2023-04-15T00:44:56.317Z,11.32
2023-04-15T00:49:08.851Z,11.31
2023-04-15T00:53:21.363Z,11.27
2023-04-15T00:57:34.466Z,11.27
2023-04-15T01:01:47.472Z,11.21
2023-04-15T01:06:03.669Z,11.30
2023-04-15T01:10:16.753Z,11.29
2023-04-15T01:14:29.532Z,11.33
2023-04-15T01:18:42.158Z,11.37
2023-04-15T01:22:55.222Z,11.33
2023-04-15T01:27:07.749Z,11.33
2023-04-15T01:31:22.452Z,11.33
2023-04-15T01:35:35.070Z,11.34
2023-04-15T01:39:47.432Z,11.39
2023-04-15T01:44:02.010Z,11.44
2023-04-15T01:48:14.549Z,11.37
2023-04-15T01:52:27.101Z,11.38
2023-04-15T01:56:40.092Z,11.33
2023-04-15T02:00:52.731Z,11.25
2023-04-15T02:05:06.030Z,11.21
2023-04-15T02:09:18.382Z,11.17
2023-04-15T02:13:31.290Z,11.33
2023-04-15T02:17:46.194Z,11.06
2023-04-15T02:22:01.958Z,11.01
2023-04-15T02:26:15.043Z,11.13
2023-04-15T02:30:27.531Z,10.98
2023-04-15T02:34:41.747Z,10.94
2023-04-15T02:38:55.202Z,11.14
2023-04-15T02:43:08.492Z,10.90
2023-04-15T02:47:21.431Z,10.97
2023-04-15T02:51:34.375Z,11.04
2023-04-15T02:55:48.902Z,11.07
2023-04-15T03:00:01.578Z,11.07
2023-04-15T03:04:14.983Z,11.13
2023-04-15T03:08:27.496Z,11.02
2023-04-15T03:12:42.330Z,10.95
2023-04-15T03:16:59.838Z,11.14
2023-04-15T03:21:12.420Z,11.09
2023-04-15T03:25:25.898Z,10.94
2023-04-15T03:29:38.390Z,11.13
2023-04-15T03:33:51.131Z,11.07
2023-04-15T03:38:03.511Z,10.96
2023-04-15T03:42:16.041Z,10.84
2023-04-15T03:46:28.613Z,11.08
2023-04-15T03:50:41.027Z,10.97
2023-04-15T03:54:53.484Z,11.05
2023-04-15T03:59:07.300Z,11.02
2023-04-15T04:03:20.108Z,10.82
2023-04-15T04:07:32.654Z,10.89
2023-04-15T04:11:45.964Z,10.72
2023-04-15T04:15:58.528Z,10.68
2023-04-15T04:20:11.648Z,10.81
2023-04-15T04:24:24.226Z,10.87
2023-04-15T04:28:36.797Z,10.78
2023-04-15T04:32:51.489Z,10.82
2023-04-15T04:37:03.845Z,10.97
2023-04-15T04:41:16.355Z,10.95
2023-04-15T04:45:28.752Z,11.06
2023-04-15T04:49:41.494Z,11.13
2023-04-15T04:53:54.713Z,11.28
2023-04-15T04:58:07.258Z,11.22
2023-04-15T05:02:19.865Z,11.30
2023-04-15T05:06:33.203Z,11.46
2023-04-15T05:10:45.672Z,11.58
2023-04-15T05:14:58.221Z,11.40
2023-04-15T05:19:10.835Z,11.74
2023-04-15T05:23:23.432Z,12.68
2023-04-15T05:27:36.386Z,13.38
2023-04-15T05:31:48.745Z,13.33
2023-04-15T05:36:01.544Z,13.54
2023-04-15T05:40:14.663Z,13.12
2023-04-15T05:44:27.251Z,12.99
2023-04-15T05:48:39.564Z,13.15
2023-04-15T05:52:51.996Z,13.05
2023-04-15T05:57:04.671Z,13.51
2023-04-15T06:01:17.478Z,14.04
2023-04-15T06:05:30.249Z,13.37
2023-04-15T06:09:42.873Z,13.81
2023-04-15T06:13:55.218Z,13.57
2023-04-15T06:18:07.710Z,14.24
2023-04-15T06:22:20.129Z,14.12
2023-04-15T06:26:32.733Z,13.98
2023-04-15T06:30:45.318Z,13.53
2023-04-15T06:34:57.834Z,13.48
2023-04-15T06:39:10.811Z,13.78
2023-04-15T06:43:23.161Z,14.04
2023-04-15T06:47:35.723Z,14.41
2023-04-15T06:51:48.244Z,14.56
2023-04-15T06:56:00.753Z,14.20
2023-04-15T07:00:13.648Z,14.42
2023-04-15T07:04:26.060Z,14.68
2023-04-15T07:08:38.573Z,14.66
2023-04-15T07:12:51.124Z,14.83
2023-04-15T07:17:03.584Z,14.81
2023-04-15T07:21:16.198Z,15.09
2023-04-15T07:25:28.723Z,15.57
2023-04-15T07:29:41.694Z,15.42
2023-04-15T07:33:54.073Z,16.02
2023-04-15T07:38:07.202Z,15.17
2023-04-15T07:42:20.053Z,16.86
2023-04-15T07:46:32.753Z,16.99
2023-04-15T07:50:45.117Z,16.73
2023-04-15T07:54:57.453Z,16.42
2023-04-15T07:59:10.730Z,16.71
2023-04-15T08:03:24.130Z,16.35
2023-04-15T08:07:38.661Z,17.09
2023-04-15T08:11:51.520Z,17.95
2023-04-15T08:16:20.000Z,17.83
2023-04-15T08:20:33.100Z,18.02
2023-04-15T08:24:46.187Z,18.15
2023-04-15T08:28:58.956Z,18.30
2023-04-15T08:33:11.468Z,17.66
2023-04-15T08:37:24.365Z,18.35
2023-04-15T08:41:48.205Z,16.72
2023-04-15T08:46:02.438Z,17.72
2023-04-15T08:50:17.350Z,17.30
2023-04-15T08:54:30.431Z,17.16
2023-04-15T08:58:45.325Z,17.95
2023-04-15T09:02:59.839Z,19.12
2023-04-15T09:07:12.509Z,18.88
2023-04-15T09:11:25.095Z,18.21
2023-04-15T09:15:39.582Z,18.48
2023-04-15T09:20:10.266Z,17.81
2023-04-15T09:24:23.302Z,18.19
2023-04-15T09:28:42.761Z,17.74
2023-04-15T09:33:02.576Z,17.82
2023-04-15T09:37:31.631Z,18.28
2023-04-15T09:41:45.435Z,19.08
2023-04-15T09:45:57.932Z,17.18
2023-04-15T09:50:11.756Z,17.36
2023-04-15T09:54:24.226Z,17.22
2023-04-15T09:58:39.067Z,17.89
2023-04-15T10:02:52.316Z,17.82
2023-04-15T10:07:06.834Z,18.04
2023-04-15T10:11:22.091Z,18.23
2023-04-15T10:15:34.779Z,18.23
2023-04-15T10:19:48.938Z,17.80
2023-04-15T10:24:04.093Z,17.19
2023-04-15T10:28:17.647Z,17.88
2023-04-15T10:32:30.895Z,16.89
2023-04-15T10:36:44.683Z,17.70
2023-04-15T10:41:22.330Z,18.29
2023-04-15T10:45:37.717Z,18.00
2023-04-15T10:49:58.358Z,17.70
2023-04-15T10:54:32.498Z,17.48
2023-04-15T10:58:45.784Z,18.29
2023-04-15T11:03:09.386Z,17.03
2023-04-15T11:07:41.523Z,17.21
2023-04-15T11:12:10.789Z,18.44
2023-04-15T11:16:23.363Z,18.28
2023-04-15T11:20:37.419Z,17.90
2023-04-15T11:24:50.818Z,18.28
2023-04-15T11:29:03.567Z,18.62
2023-04-15T11:33:16.392Z,18.32
2023-04-15T11:37:30.640Z,18.10
2023-04-15T11:41:46.288Z,19.95
2023-04-15T11:46:01.339Z,22.07
2023-04-15T11:50:23.908Z,21.63
2023-04-15T11:54:37.898Z,19.22
2023-04-15T11:58:57.560Z,18.88
2023-04-15T12:03:30.783Z,20.57
2023-04-15T12:08:00.118Z,18.32
2023-04-15T12:12:13.076Z,18.23
2023-04-15T12:16:26.493Z,18.17
2023-04-15T12:20:45.650Z,18.25
2023-04-15T12:24:58.605Z,18.20
2023-04-15T12:29:12.515Z,18.29
2023-04-15T12:33:33.020Z,18.66
2023-04-15T12:37:46.501Z,18.84
2023-04-15T12:42:00.632Z,20.38
2023-04-15T12:46:14.242Z,18.06
2023-04-15T12:50:26.649Z,17.95
2023-04-15T12:54:40.097Z,18.72
2023-04-15T12:58:54.796Z,19.16
2023-04-15T13:03:07.780Z,18.37
2023-04-15T13:07:20.758Z,18.47
2023-04-15T13:11:34.491Z,19.18
2023-04-15T13:15:47.075Z,18.68
2023-04-15T13:20:00.853Z,18.13
2023-04-15T13:24:13.233Z,18.58
2023-04-15T13:28:29.031Z,17.96
2023-04-15T13:32:41.436Z,18.23
2023-04-15T13:36:53.906Z,18.34
2023-04-15T13:41:06.565Z,18.45
2023-04-15T13:45:19.082Z,18.56
2023-04-15T13:49:31.521Z,18.35
2023-04-15T13:53:44.000Z,19.11
2023-04-15T13:57:57.560Z,19.90
2023-04-15T14:02:10.546Z,19.58
2023-04-15T14:06:23.231Z,20.42
2023-04-15T14:10:36.051Z,18.64
2023-04-15T14:14:48.568Z,18.26
2023-04-15T14:19:02.512Z,18.29
2023-04-15T14:23:15.165Z,17.56
2023-04-15T14:27:27.618Z,17.81
2023-04-15T14:31:39.977Z,17.45
2023-04-15T14:35:53.971Z,17.19
2023-04-15T14:40:07.135Z,17.19
2023-04-15T14:44:19.513Z,17.74
2023-04-15T14:48:33.186Z,17.58
2023-04-15T14:52:45.751Z,17.86
2023-04-15T14:56:58.343Z,18.26
2023-04-15T15:01:11.148Z,18.37
2023-04-15T15:05:23.770Z,17.96
2023-04-15T15:09:36.253Z,17.97
2023-04-15T15:13:48.788Z,17.90
2023-04-15T15:18:01.639Z,17.90
2023-04-15T15:22:14.488Z,17.92
2023-04-15T15:26:28.511Z,18.28
2023-04-15T15:30:40.978Z,17.60
2023-04-15T15:34:53.659Z,17.68
2023-04-15T15:39:06.306Z,18.01
2023-04-15T15:43:18.895Z,17.70
2023-04-15T15:47:31.575Z,17.45
2023-04-15T15:51:46.207Z,17.29
2023-04-15T15:55:58.829Z,16.85
2023-04-15T16:00:12.689Z,16.65
2023-04-15T16:04:26.156Z,16.39
2023-04-15T16:08:38.787Z,16.26
2023-04-15T16:12:51.173Z,16.18
2023-04-15T16:17:06.451Z,15.97
2023-04-15T16:21:20.516Z,15.91
2023-04-15T16:25:32.941Z,16.06
2023-04-15T16:29:45.595Z,15.85
2023-04-15T16:33:58.168Z,15.61
2023-04-15T16:38:10.504Z,15.41
2023-04-15T16:42:23.045Z,15.23
2023-04-15T16:46:35.648Z,14.95
2023-04-15T16:50:49.507Z,14.81
2023-04-15T16:55:01.916Z,14.73
2023-04-15T16:59:14.484Z,14.56
2023-04-15T17:03:27.354Z,14.52
2023-04-15T17:07:40.041Z,14.58
2023-04-15T17:11:52.424Z,14.50
2023-04-15T17:16:05.448Z,14.41
2023-04-15T17:20:18.878Z,14.27
2023-04-15T17:24:31.645Z,14.19
2023-04-15T17:28:43.986Z,14.11
2023-04-15T17:32:56.718Z,14.00
2023-04-15T17:37:09.152Z,13.94
2023-04-15T17:41:21.542Z,13.99
2023-04-15T17:45:34.593Z,13.97
2023-04-15T17:49:48.001Z,13.82
2023-04-15T17:54:00.625Z,13.78
2023-04-15T17:58:13.077Z,13.79
2023-04-15T18:02:25.981Z,13.70
2023-04-15T18:06:38.689Z,13.90
2023-04-15T18:10:51.293Z,13.78
2023-04-15T18:15:04.883Z,13.86
2023-04-15T18:19:18.362Z,13.84
2023-04-15T18:23:30.903Z,13.85
2023-04-15T18:27:43.491Z,13.93
2023-04-15T18:31:55.987Z,14.05
2023-04-15T18:36:08.925Z,13.98
2023-04-15T18:40:21.368Z,13.86
2023-04-15T18:44:36.136Z,13.87
2023-04-15T18:48:48.404Z,13.81
2023-04-15T18:53:00.783Z,13.72
2023-04-15T18:57:13.344Z,13.66
2023-04-15T19:01:32.009Z,13.67
2023-04-15T19:05:44.756Z,13.64
2023-04-15T19:09:57.220Z,13.49
2023-04-15T19:14:10.376Z,13.45
2023-04-15T19:18:22.947Z,13.48
2023-04-15T19:22:36.072Z,13.51
2023-04-15T19:26:52.725Z,13.47
2023-04-15T19:31:05.420Z,13.43
2023-04-15T19:35:18.016Z,13.34
2023-04-15T19:39:30.469Z,13.22
2023-04-15T19:43:42.864Z,13.25
2023-04-15T19:47:55.325Z,13.54
2023-04-15T19:52:07.853Z,13.31
2023-04-15T19:56:21.069Z,13.18
2023-04-15T20:00:33.634Z,13.13
2023-04-15T20:04:46.346Z,13.35
2023-04-15T20:08:59.210Z,13.25
2023-04-15T20:13:11.612Z,13.31
2023-04-15T20:17:24.115Z,13.31
2023-04-15T20:21:37.213Z,13.26
2023-04-15T20:25:49.647Z,13.22
2023-04-15T20:30:02.318Z,13.15
2023-04-15T20:34:14.745Z,13.27
2023-04-15T20:38:27.227Z,13.27
2023-04-15T20:42:39.644Z,13.17
2023-04-15T20:46:52.558Z,13.24
2023-04-15T20:51:06.527Z,13.30
2023-04-15T20:55:19.183Z,13.29
2023-04-15T20:59:33.060Z,13.30
2023-04-15T21:03:45.844Z,13.25
2023-04-15T21:07:59.381Z,13.22
2023-04-15T21:12:11.978Z,13.37
2023-04-15T21:16:24.340Z,13.26
2023-04-15T21:20:37.926Z,13.10
2023-04-15T21:24:50.509Z,13.05
2023-04-15T21:29:03.401Z,13.04
2023-04-15T21:33:17.072Z,12.99
2023-04-15T21:37:29.651Z,12.93
2023-04-15T21:41:42.878Z,12.86
2023-04-15T21:46:22.923Z,12.83
2023-04-15T21:50:28.121Z,12.81
2023-04-15T21:54:40.759Z,12.75
2023-04-15T21:58:57.240Z,12.62
2023-04-15T22:03:09.976Z,12.67
2023-04-15T22:07:22.554Z,12.66
2023-04-15T22:11:35.119Z,12.63
2023-04-15T22:15:48.521Z,12.63
2023-04-15T22:20:00.977Z,12.63
2023-04-15T22:24:32.721Z,12.47
2023-04-15T22:28:45.965Z,12.50
2023-04-15T22:32:58.418Z,12.47
2023-04-15T22:37:11.901Z,12.40
2023-04-15T22:41:24.296Z,12.22
2023-04-15T22:45:36.670Z,12.20
2023-04-15T22:49:49.034Z,12.21
2023-04-15T22:54:01.413Z,12.04
2023-04-15T22:58:14.669Z,11.98
2023-04-15T23:02:27.463Z,12.08
2023-04-15T23:06:40.143Z,11.97
2023-04-15T23:10:52.562Z,11.91
2023-04-15T23:15:05.405Z,11.97
2023-04-15T23:19:18.073Z,12.16
2023-04-15T23:23:30.451Z,12.00
2023-04-15T23:27:42.880Z,12.06
2023-04-15T23:31:55.224Z,12.09
2023-04-15T23:36:07.847Z,11.97
2023-04-15T23:40:21.505Z,11.81
2023-04-15T23:44:34.025Z,11.89
2023-04-15T23:48:48.057Z,11.77
2023-04-15T23:53:00.599Z,11.91
2023-04-15T23:57:13.065Z,12.05
